Impacts TAF Board INFO
FOR SITUATIONAL AWARENESS. NOT TO BE USED FOR FLIGHT PLANNING PURPOSES.
IDs:

KMIA - Miami Intl, FL, US

Issued at 0520 UTC 22 Feb 2017
Updated at 0608 UTC 22 Feb 2017
Potential Impact None Slight Moderate High
Time0553Z 22/07Z 22/08Z 22/09Z 22/10Z 22/11Z 22/12Z 22/13Z 22/14Z 22/15Z 22/16Z 22/17Z 22/18Z 22/19Z
Type OBS PRVL PRVL PRVL PRVL PRVL PRVL PRVL PRVL PRVL PRVL PRVL
  [TEMP]  
PRVL
  [TEMP]  
PRVL
  [TEMP]  
VIS 10 >6 >6 >6 >6 >6 >6 >6 >6 >6 >6 >6
  [2]  
>6
  [2]  
>6
  [2]  
CIG 250 35 35 35 35 35 35 35 35 35 30 30
  [15]  
30
  [15]  
30
  [15]  
Cover BKN BKN BKN BKN BKN BKN BKN BKN OVC OVC OVC OVC
  [OVC]  
OVC
  [OVC]  
OVC
  [OVC]  
FltCat VFR VFR VFR VFR VFR VFR VFR VFR VFR VFR MVFR MVFR
  [IFR]  
MVFR
  [IFR]  
MVFR
  [IFR]  
WX -- VCSH VCSH VCSH VCSH VCSH VCSH VCSH VCSH VCSH -SHRA VCTS -SHRA VCTS
  [TSRA]  
-SHRA VCTS
  [TSRA]  
-SHRA VCTS
  [TSRA]  
WDir 180 130 130 130 130 130 130 130 150 150 150 150
[150]
150
[150]
150
[150]
WSpd 7 10 10 10 10 10 10 10 15 15 15 15
  [15]  
15
  [15]  
15
  [15]  
WGst 17 -- -- -- -- -- -- -- 20 20 20 20
  [20]  
20
  [20]  
20
  [20]  

Raw TAF
KMIA 220520Z 2206/2306 13010KT P6SM VCSH SCT025 BKN035 BKN050
  FM221400 15015G20KT P6SM VCSH SCT020 BKN035 OVC050
  FM221600 15015G20KT P6SM -SHRA VCTS SCT020CB OVC030
  TEMPO 2217/2220 2SM TSRA BKN015CB OVC025
  FM222300 16010KT 6SM -SHRA SCT010 BKN030 OVC050
  FM230300 22009KT P6SM -SHRA SCT030 BKN050 OVC100


Raw METAR
KMIA 220553Z 18007G17KT 150V230 10SM SCT026 SCT049 SCT060 BKN250 21/18 A2990 RMK AO2 RAE0456 SLP124 P0000 60000 T02110178 10217 20211 56019
KMIA 220537Z 14008KT 10SM FEW027 SCT042 BKN060 BKN250 22/18 A2990 RMK AO2 RAE0456 P0000 T02170178
KMIA 220453Z 13010G16KT 10SM -RA BKN026 BKN034 BKN250 22/18 A2992 RMK AO2 RAB47 SLP131 P0000 T02170178 402440172
KMIA 220441Z 12006KT 10SM BKN026 BKN050 BKN250 22/18 A2992 RMK AO2 T02170178
KMIA 220353Z COR 12009KT 10SM SCT028 BKN050 OVC250 21/18 A2993 RMK AO2 SLP136 T02110178

METAR Board
Radar Display
Forecast Discussion

FOR SITUATIONAL AWARENESS. NOT TO BE USED FOR FLIGHT PLANNING PURPOSES.

Page loaded:  06:08 UTC  |   10:08 PM Pacific  |   11:08 PM Mountain  |   12:08 AM Central  |   01:08 AM Eastern

 

ADVISORIES

FORECASTS

FORECASTS

OBSERVATIONS

USER TOOLS

ABOUT US